createdAt,value
2022-08-09T00:00:11.821Z,58.20
2022-08-09T00:01:10.721Z,57.90
2022-08-09T00:02:08.507Z,58.98
2022-08-09T00:03:18.858Z,58.61
2022-08-09T00:04:15.301Z,59.41
2022-08-09T00:06:17.698Z,59.31
2022-08-09T00:06:18.831Z,59.53
2022-08-09T00:07:10.771Z,59.94
2022-08-09T00:08:09.684Z,60.74
2022-08-09T00:09:07.403Z,58.73
2022-08-09T00:10:07.392Z,58.94
2022-08-09T00:11:24.436Z,58.50
2022-08-09T00:12:08.381Z,59.00
2022-08-09T00:13:16.803Z,59.20
2022-08-09T00:14:08.275Z,59.64
2022-08-09T00:15:07.288Z,58.94
2022-08-09T00:16:08.289Z,59.00
2022-08-09T00:17:07.266Z,58.50
2022-08-09T00:18:11.254Z,57.90
2022-08-09T00:19:09.379Z,58.50
2022-08-09T00:20:07.250Z,58.11
2022-08-09T00:21:07.944Z,57.98
2022-08-09T00:22:07.255Z,58.91
2022-08-09T00:23:53.982Z,58.11
2022-08-09T00:24:08.173Z,57.70
2022-08-09T00:25:08.431Z,58.30
2022-08-09T00:26:07.155Z,57.80
2022-08-09T00:27:07.159Z,59.31
2022-08-09T00:28:07.159Z,59.11
2022-08-09T00:29:12.521Z,58.83
2022-08-09T00:30:16.458Z,58.61
2022-08-09T00:31:50.457Z,58.40
2022-08-09T00:32:08.133Z,58.94
2022-08-09T00:33:07.085Z,58.63
2022-08-09T00:34:07.078Z,59.94
2022-08-09T00:35:07.073Z,60.84
2022-08-09T00:36:07.043Z,59.86
2022-08-09T00:37:07.072Z,60.57
2022-08-09T00:38:07.031Z,60.77
2022-08-09T00:39:07.060Z,61.60
2022-08-09T00:40:14.088Z,61.60
2022-08-09T00:41:08.280Z,61.60
2022-08-09T00:44:15.692Z,61.83
2022-08-09T00:44:19.802Z,61.90
2022-08-09T00:44:26.589Z,62.23
2022-08-09T00:45:15.860Z,63.23
2022-08-09T00:46:07.960Z,63.06
2022-08-09T00:47:06.961Z,63.26
2022-08-09T00:48:06.919Z,62.26
2022-08-09T00:49:06.906Z,63.36
2022-08-09T00:50:06.922Z,63.17
2022-08-09T00:51:11.774Z,62.96
2022-08-09T00:52:17.324Z,62.03
2022-08-09T00:53:10.521Z,63.36
2022-08-09T00:54:06.848Z,64.27
2022-08-09T00:55:06.878Z,64.90
2022-08-09T00:56:09.806Z,63.29
2022-08-09T00:57:10.671Z,64.10
2022-08-09T00:58:06.804Z,63.29
2022-08-09T00:59:06.822Z,62.96
2022-08-09T01:00:20.685Z,63.17
2022-08-09T01:01:07.863Z,62.86
2022-08-09T01:02:06.796Z,62.86
2022-08-09T01:03:06.804Z,63.26
2022-08-09T01:04:06.832Z,63.26
2022-08-09T01:05:13.977Z,62.86
2022-08-09T01:06:17.907Z,64.30
2022-08-09T01:07:07.753Z,63.70
2022-08-09T01:08:07.687Z,63.39
2022-08-09T01:09:06.694Z,63.70
2022-08-09T01:10:06.756Z,63.70
2022-08-09T01:11:08.503Z,63.39
2022-08-09T01:12:06.678Z,63.09
2022-08-09T01:13:07.430Z,63.26
2022-08-09T01:14:06.798Z,63.17
2022-08-09T01:15:09.989Z,63.06
2022-08-09T01:16:07.617Z,63.76
2022-08-09T01:17:08.835Z,63.26
2022-08-09T01:18:06.581Z,62.76
2022-08-09T01:19:06.617Z,62.96
2022-08-09T01:20:07.588Z,62.86
2022-08-09T01:21:06.573Z,62.66
2022-08-09T01:22:06.591Z,62.96
2022-08-09T01:24:00.970Z,62.86
2022-08-09T01:24:07.501Z,62.96
2022-08-09T01:25:06.525Z,63.06
2022-08-09T01:26:06.494Z,62.96
2022-08-09T01:27:07.911Z,62.96
2022-08-09T01:28:06.476Z,63.26
2022-08-09T01:29:06.495Z,63.46
2022-08-09T01:30:06.456Z,63.79
2022-08-09T01:31:06.456Z,63.70
2022-08-09T01:32:31.750Z,63.17
2022-08-09T01:33:07.408Z,63.09
2022-08-09T01:34:06.443Z,63.09
2022-08-09T01:35:07.098Z,63.09
2022-08-09T01:36:07.485Z,63.59
2022-08-09T01:37:06.373Z,63.90
2022-08-09T01:38:10.479Z,63.79
2022-08-09T01:39:07.393Z,63.70
2022-08-09T01:40:06.363Z,63.59
2022-08-09T01:41:06.379Z,63.79
2022-08-09T01:42:11.198Z,63.49
2022-08-09T01:43:07.328Z,64.00
2022-08-09T01:44:06.369Z,63.79
2022-08-09T01:45:06.294Z,63.79
2022-08-09T01:46:06.268Z,63.90
2022-08-09T01:47:06.313Z,63.67
2022-08-09T01:48:07.314Z,63.06
2022-08-09T01:49:09.758Z,63.17
2022-08-09T01:50:06.398Z,63.17
2022-08-09T01:51:06.271Z,63.17
2022-08-09T01:52:07.447Z,63.36
2022-08-09T01:53:19.749Z,63.46
2022-08-09T01:54:07.204Z,64.17
2022-08-09T01:55:06.189Z,63.70
2022-08-09T01:56:06.176Z,63.90
2022-08-09T01:57:06.148Z,64.30
2022-08-09T01:58:06.153Z,64.10
2022-08-09T01:59:06.150Z,64.23
2022-08-09T02:00:09.105Z,64.33
2022-08-09T02:01:07.896Z,64.50
2022-08-09T02:02:06.120Z,64.90
2022-08-09T02:03:06.515Z,65.44
2022-08-09T02:04:06.087Z,65.36
2022-08-09T02:05:15.533Z,65.67
2022-08-09T02:06:07.180Z,65.47
2022-08-09T02:07:06.059Z,65.36
2022-08-09T02:08:41.253Z,65.77
2022-08-09T02:09:07.091Z,66.07
2022-08-09T02:10:06.036Z,66.27
2022-08-09T02:11:16.868Z,66.67
2022-08-09T02:12:06.990Z,66.87
2022-08-09T02:13:06.055Z,66.60
2022-08-09T02:14:07.120Z,67.11
2022-08-09T02:15:06.415Z,66.60
2022-08-09T02:16:05.957Z,66.17
2022-08-09T02:17:29.515Z,65.56
2022-08-09T02:18:10.436Z,65.53
2022-08-09T02:19:05.942Z,65.84
2022-08-09T02:20:05.956Z,65.84
2022-08-09T02:21:05.907Z,65.64
2022-08-09T02:22:05.957Z,65.64
2022-08-09T02:23:05.938Z,65.67
2022-08-09T02:24:05.938Z,65.73
2022-08-09T02:25:06.749Z,65.73
2022-08-09T02:26:05.867Z,65.03
2022-08-09T02:27:05.836Z,65.23
2022-08-09T02:28:09.554Z,65.94
2022-08-09T02:29:05.849Z,66.03
2022-08-09T02:30:05.785Z,66.67
2022-08-09T02:31:06.193Z,67.58
2022-08-09T02:32:05.762Z,67.81
2022-08-09T02:33:07.954Z,68.44
2022-08-09T02:34:13.735Z,68.98
2022-08-09T02:35:17.262Z,69.75
2022-08-09T02:36:06.779Z,70.06
2022-08-09T02:37:05.742Z,70.49
2022-08-09T02:38:05.720Z,70.89
2022-08-09T02:39:05.856Z,71.10
2022-08-09T02:40:09.504Z,71.40
2022-08-09T02:41:07.539Z,71.33
2022-08-09T02:42:05.744Z,71.94
2022-08-09T02:43:05.782Z,72.04
2022-08-09T02:44:10.505Z,72.24
2022-08-09T02:45:06.824Z,72.38
2022-08-09T02:46:05.631Z,72.54
2022-08-09T02:47:05.603Z,72.38
2022-08-09T02:48:05.635Z,72.78
2022-08-09T02:49:06.607Z,72.58
2022-08-09T02:50:05.647Z,72.85
2022-08-09T02:51:05.628Z,72.78
2022-08-09T02:52:05.555Z,72.54
2022-08-09T02:53:05.626Z,72.58
2022-08-09T02:54:05.550Z,72.34
2022-08-09T02:55:20.175Z,72.14
2022-08-09T02:56:06.541Z,71.53
2022-08-09T02:57:13.986Z,71.94
2022-08-09T02:58:32.242Z,71.33
2022-08-09T02:59:06.497Z,71.00
2022-08-09T03:00:21.079Z,71.10
2022-08-09T03:01:07.888Z,70.15
2022-08-09T03:02:07.128Z,70.26
2022-08-09T03:03:06.482Z,70.56
2022-08-09T03:04:16.925Z,69.55
2022-08-09T03:05:06.459Z,69.25
2022-08-09T03:06:05.548Z,69.45
2022-08-09T03:07:12.537Z,69.42
2022-08-09T03:08:06.388Z,69.65
2022-08-09T03:09:05.374Z,70.36
2022-08-09T03:10:05.370Z,69.75
2022-08-09T03:11:05.376Z,70.56
2022-08-09T03:12:11.311Z,70.36
2022-08-09T03:13:08.564Z,71.10
2022-08-09T03:14:05.342Z,71.10
2022-08-09T03:15:05.812Z,72.54
2022-08-09T03:16:07.113Z,72.27
2022-08-09T03:17:05.738Z,73.58
2022-08-09T03:18:09.700Z,74.53
2022-08-09T03:19:06.261Z,74.73
2022-08-09T03:20:11.542Z,75.37
2022-08-09T03:21:06.238Z,75.48
2022-08-09T03:22:05.217Z,75.98
2022-08-09T03:23:14.592Z,76.59
2022-08-09T03:24:06.193Z,76.72
2022-08-09T03:25:21.671Z,77.33
2022-08-09T03:26:06.165Z,77.33
2022-08-09T03:27:05.196Z,77.73
2022-08-09T03:28:05.150Z,77.77
2022-08-09T03:29:09.792Z,77.67
2022-08-09T03:30:07.491Z,77.73
2022-08-09T03:31:10.486Z,78.38
2022-08-09T03:32:06.153Z,78.17
2022-08-09T03:33:05.537Z,78.48
2022-08-09T03:34:06.125Z,78.88
2022-08-09T03:35:05.101Z,78.92
2022-08-09T03:36:13.844Z,78.88
2022-08-09T03:37:10.668Z,78.82
2022-08-09T03:38:06.038Z,79.33
2022-08-09T03:39:05.139Z,78.92
2022-08-09T03:40:05.082Z,79.22
2022-08-09T03:41:05.011Z,79.83
2022-08-09T03:42:06.097Z,79.77
2022-08-09T03:43:04.999Z,80.18
2022-08-09T03:44:08.246Z,80.58
2022-08-09T03:45:04.987Z,80.47
2022-08-09T03:46:20.064Z,80.52
2022-08-09T03:47:05.970Z,80.52
2022-08-09T03:48:04.939Z,80.38
2022-08-09T03:49:08.841Z,81.02
2022-08-09T03:50:04.986Z,81.23
2022-08-09T03:51:04.979Z,80.62
2022-08-09T03:52:04.882Z,80.41
2022-08-09T03:53:05.278Z,80.07
2022-08-09T03:54:04.897Z,80.38
2022-08-09T03:55:07.522Z,80.58
2022-08-09T03:56:04.882Z,80.38
2022-08-09T03:57:18.297Z,80.41
2022-08-09T03:58:16.370Z,80.31
2022-08-09T03:59:07.142Z,80.92
2022-08-09T04:00:04.794Z,81.12
2022-08-09T04:01:04.907Z,81.52
2022-08-09T04:02:04.806Z,81.43
2022-08-09T04:03:04.766Z,81.32
2022-08-09T04:04:09.584Z,81.23
2022-08-09T04:05:17.112Z,81.83
2022-08-09T04:06:05.784Z,81.83
2022-08-09T04:07:04.742Z,81.87
2022-08-09T04:08:04.762Z,81.67
2022-08-09T04:09:04.735Z,81.67
2022-08-09T04:10:05.712Z,82.07
2022-08-09T04:11:04.723Z,82.17
2022-08-09T04:12:04.658Z,82.48
2022-08-09T04:13:04.775Z,82.07
2022-08-09T04:14:53.592Z,81.97
2022-08-09T04:15:11.448Z,82.42
2022-08-09T04:16:19.736Z,82.92
2022-08-09T04:17:05.610Z,82.72
2022-08-09T04:18:04.602Z,82.86
2022-08-09T04:19:04.629Z,84.01
2022-08-09T04:20:05.612Z,85.24
2022-08-09T04:21:04.636Z,84.89
2022-08-09T04:22:04.597Z,84.78
2022-08-09T04:23:09.921Z,83.53
2022-08-09T04:24:04.588Z,82.48
2022-08-09T04:25:04.549Z,81.93
2022-08-09T04:26:04.525Z,81.97
2022-08-09T04:27:04.532Z,82.44
2022-08-09T04:28:04.516Z,82.68
2022-08-09T04:29:10.816Z,83.29
2022-08-09T04:30:05.538Z,83.23
2022-08-09T04:31:08.235Z,84.28
2022-08-09T04:32:05.497Z,84.69
2022-08-09T04:33:04.442Z,84.83
2022-08-09T04:34:04.432Z,84.93
2022-08-09T04:35:04.474Z,84.97
2022-08-09T04:36:04.470Z,86.39
2022-08-09T04:37:04.404Z,86.69
2022-08-09T04:38:04.426Z,86.94
2022-08-09T04:39:04.478Z,87.24
2022-08-09T04:40:04.413Z,87.55
2022-08-09T04:41:04.360Z,88.10
2022-08-09T04:42:05.375Z,88.30
2022-08-09T04:43:05.536Z,89.22
2022-08-09T04:44:06.887Z,88.06
2022-08-09T04:45:05.334Z,88.16
2022-08-09T04:46:04.311Z,88.36
2022-08-09T04:47:06.325Z,88.46
2022-08-09T04:48:09.911Z,88.16
2022-08-09T04:49:05.278Z,88.36
2022-08-09T04:50:04.300Z,89.17
2022-08-09T04:51:04.283Z,88.36
2022-08-09T04:52:04.298Z,87.71
2022-08-09T04:53:04.245Z,85.84
2022-08-09T04:54:04.250Z,85.19
2022-08-09T04:55:06.502Z,85.50
2022-08-09T04:56:05.546Z,86.00
2022-08-09T04:57:04.285Z,85.60
2022-08-09T04:58:09.497Z,85.80
2022-08-09T04:59:13.129Z,86.31
2022-08-09T05:00:05.192Z,84.99
2022-08-09T05:01:04.171Z,84.95
2022-08-09T05:02:05.155Z,84.99
2022-08-09T05:03:12.896Z,84.99
2022-08-09T05:04:05.146Z,85.50
2022-08-09T05:05:09.712Z,85.60
2022-08-09T05:06:07.031Z,84.99
2022-08-09T05:07:04.068Z,84.34
2022-08-09T05:08:04.076Z,84.04
2022-08-09T05:09:04.047Z,84.34
2022-08-09T05:10:04.039Z,84.75
2022-08-09T05:11:06.779Z,85.46
2022-08-09T05:12:03.999Z,85.76
2022-08-09T05:13:04.160Z,85.76
2022-08-09T05:14:05.957Z,85.86
2022-08-09T05:15:04.013Z,85.46
2022-08-09T05:16:04.971Z,85.31
2022-08-09T05:17:03.979Z,85.25
2022-08-09T05:18:38.601Z,85.76
2022-08-09T05:19:04.980Z,85.31
2022-08-09T05:20:03.987Z,85.66
2022-08-09T05:21:20.718Z,86.73
2022-08-09T05:22:04.903Z,86.53
2022-08-09T05:23:58.115Z,86.13
2022-08-09T05:24:05.216Z,86.16
2022-08-09T05:25:03.890Z,86.27
2022-08-09T05:26:03.927Z,85.76
2022-08-09T05:27:03.842Z,86.88
2022-08-09T05:28:03.847Z,86.83
2022-08-09T05:29:03.874Z,86.43
2022-08-09T05:30:03.831Z,86.63
2022-08-09T05:31:09.524Z,86.37
2022-08-09T05:32:05.785Z,87.14
2022-08-09T05:33:03.780Z,86.57
2022-08-09T05:34:04.805Z,85.62
2022-08-09T05:35:03.796Z,85.62
2022-08-09T05:36:03.739Z,85.58
2022-08-09T05:37:05.871Z,85.48
2022-08-09T05:38:03.756Z,85.78
2022-08-09T05:39:03.747Z,84.27
2022-08-09T05:40:03.827Z,83.11
2022-08-09T05:41:03.692Z,83.37
2022-08-09T05:42:04.570Z,83.47
2022-08-09T05:43:03.698Z,83.47
2022-08-09T05:44:03.687Z,83.37
2022-08-09T05:45:03.665Z,81.62
2022-08-09T05:46:03.660Z,82.02
2022-08-09T05:47:05.596Z,82.22
2022-08-09T05:48:03.650Z,81.51
2022-08-09T05:49:03.613Z,81.57
2022-08-09T05:50:23.580Z,81.68
2022-08-09T05:51:30.236Z,81.48
2022-08-09T05:52:04.622Z,81.34
2022-08-09T05:53:03.559Z,80.02
2022-08-09T05:54:03.556Z,80.73
2022-08-09T05:55:07.184Z,79.99
2022-08-09T05:56:04.545Z,79.79
2022-08-09T05:57:03.521Z,79.14
2022-08-09T05:58:04.084Z,78.53
2022-08-09T05:59:03.501Z,77.02
2022-08-09T06:00:03.534Z,76.88
2022-08-09T06:01:03.562Z,76.18
2022-08-09T06:02:03.459Z,75.54
2022-08-09T06:03:03.839Z,75.23
2022-08-09T06:04:05.943Z,75.50
2022-08-09T06:05:03.490Z,74.59
2022-08-09T06:06:04.724Z,74.49
2022-08-09T06:07:03.442Z,74.08
2022-08-09T06:08:05.528Z,74.05
2022-08-09T06:09:05.589Z,74.35
2022-08-09T06:10:04.400Z,74.66
2022-08-09T06:11:16.589Z,74.32
2022-08-09T06:12:04.465Z,73.18
2022-08-09T06:13:12.495Z,72.88
2022-08-09T06:14:04.350Z,72.07
2022-08-09T06:15:08.148Z,72.94
2022-08-09T06:16:05.037Z,72.03
2022-08-09T06:17:09.111Z,74.11
2022-08-09T06:18:04.380Z,73.51
2022-08-09T06:19:03.281Z,72.71
2022-08-09T06:20:03.306Z,71.80
2022-08-09T06:21:04.254Z,73.24
2022-08-09T06:22:03.333Z,72.30
2022-08-09T06:23:03.251Z,72.30
2022-08-09T06:24:03.223Z,71.60
2022-08-09T06:25:03.261Z,72.30
2022-08-09T06:26:03.256Z,70.83
2022-08-09T06:27:03.210Z,70.73
2022-08-09T06:28:03.170Z,70.23
2022-08-09T06:29:05.088Z,71.13
2022-08-09T06:30:09.466Z,69.92
2022-08-09T06:31:04.167Z,69.49
2022-08-09T06:32:08.308Z,69.89
2022-08-09T06:33:30.586Z,69.99
2022-08-09T06:34:04.123Z,68.95
2022-08-09T06:35:06.310Z,68.92
2022-08-09T06:36:03.089Z,69.19
2022-08-09T06:37:03.090Z,67.55
2022-08-09T06:38:06.760Z,66.12
2022-08-09T06:39:08.942Z,65.95
2022-08-09T06:40:21.676Z,65.99
2022-08-09T06:41:04.048Z,63.53
2022-08-09T06:42:09.108Z,62.53
2022-08-09T06:43:04.011Z,63.00
2022-08-09T06:44:03.025Z,63.60
2022-08-09T06:45:20.440Z,62.53
2022-08-09T06:46:07.411Z,61.90
2022-08-09T06:47:03.997Z,62.01
2022-08-09T06:48:02.948Z,61.44
2022-08-09T06:49:03.065Z,60.79
2022-08-09T06:50:14.754Z,58.71
2022-08-09T06:51:04.381Z,57.69
2022-08-09T06:52:02.913Z,57.12
2022-08-09T06:53:02.933Z,57.79
2022-08-09T06:54:02.908Z,56.87
2022-08-09T06:55:10.027Z,57.18
2022-08-09T06:56:03.886Z,56.32
2022-08-09T06:57:02.930Z,55.91
2022-08-09T06:58:04.674Z,56.78
2022-08-09T07:00:50.249Z,54.13
2022-08-09T07:00:54.990Z,56.80
2022-08-09T07:01:04.079Z,54.89
2022-08-09T07:02:04.585Z,53.92
2022-08-09T07:03:06.039Z,54.49
2022-08-09T07:04:03.790Z,53.08
2022-08-09T07:05:02.803Z,53.26
2022-08-09T07:06:05.132Z,53.68
2022-08-09T07:07:05.025Z,53.78
2022-08-09T07:08:02.733Z,55.04
2022-08-09T07:09:02.740Z,55.24
2022-08-09T07:10:13.123Z,53.67
2022-08-09T07:11:03.796Z,53.01
2022-08-09T07:12:02.711Z,52.88
2022-08-09T07:13:18.558Z,51.97
2022-08-09T07:14:04.776Z,52.07
2022-08-09T07:15:03.471Z,53.06
2022-08-09T07:16:44.011Z,53.40
2022-08-09T07:17:03.698Z,52.91
2022-08-09T07:18:03.269Z,51.20
2022-08-09T07:19:02.641Z,53.53
2022-08-09T07:20:02.666Z,54.49
2022-08-09T07:21:02.592Z,53.53
2022-08-09T07:22:03.581Z,53.01
2022-08-09T07:23:02.635Z,53.38
2022-08-09T07:24:04.999Z,51.99
2022-08-09T07:25:05.308Z,53.08
2022-08-09T07:26:03.586Z,54.98
2022-08-09T07:27:02.563Z,51.54
2022-08-09T07:28:04.392Z,52.26
2022-08-09T07:29:12.016Z,52.36
2022-08-09T07:30:03.493Z,52.56
2022-08-09T07:31:02.488Z,53.20
2022-08-09T07:32:02.493Z,51.92
2022-08-09T07:33:02.486Z,53.75
2022-08-09T07:34:03.486Z,51.35
2022-08-09T07:35:02.826Z,52.98
2022-08-09T07:36:03.459Z,50.46
2022-08-09T07:37:03.518Z,48.49
2022-08-09T07:38:02.414Z,49.08
2022-08-09T07:39:02.475Z,49.84
2022-08-09T07:40:02.476Z,51.13
2022-08-09T07:41:11.469Z,53.70
2022-08-09T07:42:03.385Z,51.59
2022-08-09T07:43:02.365Z,50.83
2022-08-09T07:44:02.342Z,51.00
2022-08-09T07:45:06.475Z,52.86
2022-08-09T07:46:03.321Z,51.32
2022-08-09T07:47:02.433Z,50.34
2022-08-09T07:48:04.757Z,51.77
2022-08-09T07:49:02.305Z,48.14
2022-08-09T07:50:07.846Z,49.89
2022-08-09T07:52:02.281Z,50.51
2022-08-09T07:52:17.051Z,52.81
2022-08-09T07:53:04.788Z,51.20
2022-08-09T07:54:05.983Z,51.10
2022-08-09T07:55:03.990Z,52.04
2022-08-09T07:56:06.536Z,51.70
2022-08-09T07:57:02.307Z,51.15
2022-08-09T07:58:02.188Z,52.31
2022-08-09T07:59:03.654Z,51.28
2022-08-09T08:00:04.070Z,52.14
2022-08-09T08:01:06.227Z,49.82
2022-08-09T08:02:03.257Z,50.61
2022-08-09T08:03:02.150Z,51.10
2022-08-09T08:04:02.230Z,51.05
2022-08-09T08:05:02.137Z,49.62
2022-08-09T08:06:02.133Z,47.75
2022-08-09T08:07:15.415Z,49.69
2022-08-09T08:09:00.513Z,49.79
2022-08-09T08:09:07.796Z,49.50
2022-08-09T08:10:08.672Z,49.62
2022-08-09T08:12:09.059Z,50.14
2022-08-09T08:12:11.321Z,49.57
2022-08-09T08:13:03.836Z,51.03
2022-08-09T08:14:02.028Z,51.05
2022-08-09T08:15:02.043Z,49.33
2022-08-09T08:16:02.026Z,47.97
2022-08-09T08:17:09.091Z,50.31
2022-08-09T08:18:02.972Z,47.85
2022-08-09T08:19:02.983Z,49.50
2022-08-09T08:20:01.945Z,48.84
2022-08-09T08:21:01.944Z,48.05
2022-08-09T08:22:01.975Z,47.44
2022-08-09T08:23:06.952Z,49.35
2022-08-09T08:24:11.915Z,49.73
2022-08-09T08:25:02.922Z,50.76
2022-08-09T08:26:08.063Z,46.93
2022-08-09T08:27:02.952Z,47.52
2022-08-09T08:28:01.901Z,45.89
2022-08-09T08:29:01.866Z,49.23
2022-08-09T08:30:04.255Z,45.40
2022-08-09T08:31:10.582Z,49.77
2022-08-09T08:32:05.718Z,45.34
2022-08-09T08:33:01.824Z,46.22
2022-08-09T08:34:01.793Z,47.69
2022-08-09T08:35:01.796Z,47.74
2022-08-09T08:36:03.805Z,45.70
2022-08-09T08:37:01.802Z,44.23
2022-08-09T08:38:04.572Z,44.67
2022-08-09T08:39:02.843Z,44.77
2022-08-09T08:40:01.834Z,48.91
2022-08-09T08:41:06.153Z,48.45
2022-08-09T08:42:01.728Z,47.67
2022-08-09T08:43:01.756Z,44.41
2022-08-09T08:44:03.378Z,46.05
2022-08-09T08:45:13.281Z,44.85
2022-08-09T08:46:09.943Z,44.88
2022-08-09T08:47:12.333Z,45.49
2022-08-09T08:48:02.680Z,47.45
2022-08-09T08:49:01.703Z,43.99
2022-08-09T08:50:02.786Z,45.64
2022-08-09T08:51:01.612Z,45.62
2022-08-09T08:52:04.163Z,44.64
2022-08-09T08:53:03.986Z,44.29
2022-08-09T08:54:03.015Z,45.62
2022-08-09T08:55:03.921Z,44.29
2022-08-09T08:56:01.581Z,46.37
2022-08-09T08:57:01.559Z,44.48
2022-08-09T08:58:01.557Z,45.81
2022-08-09T08:59:01.521Z,43.88
2022-08-09T09:00:02.624Z,44.58
2022-08-09T09:01:02.556Z,42.97
2022-08-09T09:02:02.646Z,42.88
2022-08-09T09:03:08.555Z,43.58
2022-08-09T09:04:02.475Z,41.45
2022-08-09T09:05:06.158Z,44.07
2022-08-09T09:06:04.698Z,42.58
2022-08-09T09:07:01.442Z,41.86
2022-08-09T09:08:01.462Z,41.27
2022-08-09T09:09:01.511Z,39.07
2022-08-09T09:10:04.941Z,40.69
2022-08-09T09:11:02.570Z,39.95
2022-08-09T09:12:01.603Z,39.80
2022-08-09T09:13:09.175Z,39.22
2022-08-09T09:14:02.401Z,39.41
2022-08-09T09:15:01.380Z,37.33
2022-08-09T09:16:01.379Z,36.84
2022-08-09T09:17:01.332Z,37.05
2022-08-09T09:18:01.339Z,37.46
2022-08-09T09:20:02.362Z,38.04
2022-08-09T09:21:01.290Z,37.19
2022-08-09T09:22:04.261Z,37.84
2022-08-09T09:23:01.672Z,38.02
2022-08-09T09:24:04.526Z,37.61
2022-08-09T09:26:02.485Z,36.45
2022-08-09T09:26:11.858Z,37.71
2022-08-09T09:27:02.286Z,36.61
2022-08-09T09:28:04.422Z,36.24
2022-08-09T09:29:11.380Z,36.27
2022-08-09T09:30:16.505Z,37.05
2022-08-09T09:31:02.226Z,36.96
2022-08-09T09:32:07.115Z,36.65
2022-08-09T09:33:02.160Z,36.57
2022-08-09T09:34:02.216Z,37.05
2022-08-09T09:35:01.191Z,37.13
2022-08-09T09:36:03.685Z,36.94
2022-08-09T09:37:02.128Z,36.94
2022-08-09T09:38:01.143Z,36.61
2022-08-09T09:39:01.117Z,36.88
2022-08-09T09:40:02.707Z,37.77
2022-08-09T09:41:01.083Z,35.06
2022-08-09T09:42:01.062Z,37.31
2022-08-09T09:43:01.098Z,36.02
2022-08-09T09:44:11.870Z,36.25
2022-08-09T09:45:03.138Z,37.33
2022-08-09T09:47:02.014Z,36.94
2022-08-09T09:48:01.041Z,35.85
2022-08-09T09:49:01.008Z,36.00
2022-08-09T09:50:14.355Z,36.30
2022-08-09T09:51:02.009Z,35.91
2022-08-09T09:52:00.965Z,36.04
2022-08-09T09:53:01.150Z,37.31
2022-08-09T09:54:05.547Z,36.10
2022-08-09T09:55:01.985Z,37.35
2022-08-09T09:56:04.495Z,35.71
2022-08-09T09:58:03.577Z,36.41
2022-08-09T09:58:17.073Z,37.18
2022-08-09T09:59:01.906Z,35.11
2022-08-09T10:00:00.955Z,36.57
2022-08-09T10:01:00.892Z,36.46
2022-08-09T10:02:00.946Z,35.66
2022-08-09T10:03:00.991Z,36.43
2022-08-09T10:04:08.697Z,35.68
2022-08-09T10:05:01.899Z,35.17
2022-08-09T10:06:04.726Z,35.94
2022-08-09T10:07:03.677Z,36.99
2022-08-09T10:08:26.132Z,35.04
2022-08-09T10:09:02.848Z,35.84
2022-08-09T10:10:03.306Z,36.26
2022-08-09T10:11:04.051Z,35.46
2022-08-09T10:12:14.666Z,34.84
2022-08-09T10:13:01.813Z,37.57
2022-08-09T10:14:00.763Z,37.26
2022-08-09T10:15:00.768Z,36.54
2022-08-09T10:16:55.121Z,34.75
2022-08-09T10:17:11.399Z,36.39
2022-08-09T10:18:01.712Z,35.04
2022-08-09T10:19:00.726Z,36.15
2022-08-09T10:20:00.748Z,35.77
2022-08-09T10:21:00.702Z,36.24
2022-08-09T10:22:00.680Z,35.19
2022-08-09T10:23:01.045Z,35.45
2022-08-09T10:24:00.698Z,34.97
2022-08-09T10:25:06.934Z,35.91
2022-08-09T10:26:08.054Z,36.38
2022-08-09T10:27:01.634Z,36.44
2022-08-09T10:28:01.623Z,35.66
2022-08-09T10:29:23.274Z,35.45
2022-08-09T10:30:43.518Z,35.64
2022-08-09T10:33:01.586Z,36.08
2022-08-09T10:34:11.105Z,36.36
2022-08-09T10:35:01.559Z,36.75
2022-08-09T10:36:01.294Z,35.07
2022-08-09T10:37:00.556Z,35.42
2022-08-09T10:38:00.562Z,37.27
2022-08-09T10:39:00.642Z,35.91
2022-08-09T10:40:00.605Z,35.99
2022-08-09T10:41:00.536Z,35.40
2022-08-09T10:42:00.491Z,36.75
2022-08-09T10:43:00.447Z,35.17
2022-08-09T10:44:01.950Z,35.71
2022-08-09T10:45:00.442Z,36.47
2022-08-09T10:46:00.431Z,36.27
2022-08-09T10:47:01.312Z,37.56
2022-08-09T10:48:17.315Z,38.78
2022-08-09T10:49:01.406Z,35.99
2022-08-09T10:50:00.411Z,36.40
2022-08-09T10:51:00.409Z,37.47
2022-08-09T10:52:00.390Z,36.54
2022-08-09T10:53:00.390Z,36.60
2022-08-09T10:54:04.637Z,35.71
2022-08-09T10:55:00.362Z,37.27
2022-08-09T10:56:00.525Z,35.96
2022-08-09T10:57:00.312Z,35.16
2022-08-09T10:58:00.794Z,34.99
2022-08-09T10:59:00.332Z,34.96
2022-08-09T11:00:01.938Z,35.64
2022-08-09T11:03:06.439Z,36.33
2022-08-09T11:03:14.871Z,36.23
2022-08-09T11:03:15.934Z,35.84
2022-08-09T11:04:03.838Z,36.55
2022-08-09T11:05:00.314Z,38.04
2022-08-09T11:06:00.957Z,37.26
2022-08-09T11:07:00.999Z,37.22
2022-08-09T11:08:00.294Z,35.99
2022-08-09T11:09:15.817Z,36.77
2022-08-09T11:10:01.189Z,36.94
2022-08-09T11:11:00.907Z,38.01
2022-08-09T11:12:01.160Z,36.68
2022-08-09T11:13:00.153Z,35.08
2022-08-09T11:14:00.287Z,34.01
2022-08-09T11:15:00.153Z,34.32
2022-08-09T11:16:04.764Z,36.11
2022-08-09T11:17:01.115Z,35.43
2022-08-09T11:18:03.693Z,36.16
2022-08-09T11:19:00.105Z,35.61
2022-08-09T11:20:11.743Z,35.99
2022-08-09T11:21:01.158Z,36.40
2022-08-09T11:22:10.347Z,35.99
2022-08-09T11:23:01.088Z,36.18
2022-08-09T11:24:00.077Z,35.71
2022-08-09T11:25:00.024Z,37.19
2022-08-09T11:26:00.268Z,36.33
2022-08-09T11:27:00.041Z,36.82
2022-08-09T11:28:03.634Z,36.22
2022-08-09T11:29:01.130Z,36.69
2022-08-09T11:30:02.330Z,35.79
2022-08-09T11:31:01.012Z,38.01
2022-08-09T11:31:59.992Z,36.51
2022-08-09T11:32:59.969Z,35.04
2022-08-09T11:34:00.098Z,35.90
2022-08-09T11:34:59.958Z,35.10
2022-08-09T11:35:59.937Z,35.39
2022-08-09T11:36:59.943Z,35.35
2022-08-09T11:37:59.901Z,36.21
2022-08-09T11:38:59.941Z,35.61
2022-08-09T11:39:59.933Z,35.57
2022-08-09T11:40:59.897Z,34.69
2022-08-09T11:41:59.871Z,35.51
2022-08-09T11:42:59.863Z,36.02
2022-08-09T11:43:59.947Z,37.01
2022-08-09T11:44:59.844Z,35.64
2022-08-09T11:45:59.967Z,36.33
2022-08-09T11:46:59.894Z,35.04
2022-08-09T11:48:06.512Z,36.13
2022-08-09T11:49:00.853Z,36.00
2022-08-09T11:50:55.584Z,35.38
2022-08-09T11:52:49.109Z,35.22
2022-08-09T11:53:01.014Z,34.53
2022-08-09T11:53:21.019Z,36.37
2022-08-09T11:54:03.577Z,35.45
2022-08-09T11:54:59.739Z,34.92
2022-08-09T11:56:02.405Z,35.41
2022-08-09T11:56:59.761Z,35.51
2022-08-09T11:58:05.950Z,35.46
2022-08-09T11:59:00.868Z,35.95
2022-08-09T11:59:59.724Z,36.28
2022-08-09T12:00:59.814Z,36.36
2022-08-09T12:02:17.229Z,36.52
2022-08-09T12:03:09.924Z,36.02
2022-08-09T12:04:00.856Z,36.00
2022-08-09T12:04:59.851Z,37.41
2022-08-09T12:05:59.700Z,35.26
2022-08-09T12:06:59.694Z,35.44
2022-08-09T12:07:59.673Z,35.03
2022-08-09T12:08:59.685Z,34.06
2022-08-09T12:09:59.630Z,35.86
2022-08-09T12:10:59.689Z,35.38
2022-08-09T12:12:03.033Z,35.86
2022-08-09T12:12:59.604Z,35.57
2022-08-09T12:14:08.320Z,35.44
2022-08-09T12:15:08.007Z,34.35
2022-08-09T12:16:00.623Z,35.11
2022-08-09T12:16:59.553Z,33.20
2022-08-09T12:17:59.522Z,34.78
2022-08-09T12:18:59.531Z,34.61
2022-08-09T12:19:59.961Z,34.65
2022-08-09T12:21:00.425Z,35.25
2022-08-09T12:21:59.687Z,35.35
2022-08-09T12:22:59.494Z,35.51
2022-08-09T12:24:08.903Z,34.92
2022-08-09T12:25:00.497Z,34.34
2022-08-09T12:25:59.453Z,35.41
2022-08-09T12:29:13.812Z,35.10
2022-08-09T12:29:14.710Z,36.02
2022-08-09T12:29:23.812Z,33.48
2022-08-09T12:30:35.228Z,33.48
2022-08-09T12:31:00.427Z,35.21
2022-08-09T12:32:02.627Z,33.54
2022-08-09T12:32:59.438Z,35.25
2022-08-09T12:34:01.331Z,33.34
2022-08-09T12:34:59.405Z,34.05
2022-08-09T12:35:59.412Z,35.49
2022-08-09T12:37:22.299Z,34.22
2022-08-09T12:38:00.411Z,33.90
2022-08-09T12:38:59.351Z,34.91
2022-08-09T12:39:59.355Z,34.91
2022-08-09T12:40:59.327Z,34.03
2022-08-09T12:41:59.363Z,34.32
2022-08-09T12:42:59.574Z,34.45
2022-08-09T12:44:06.390Z,35.53
2022-08-09T12:45:00.408Z,35.30
2022-08-09T12:45:59.712Z,34.32
2022-08-09T12:46:59.277Z,34.83
2022-08-09T12:47:59.276Z,34.31
2022-08-09T12:48:59.309Z,35.51
2022-08-09T12:49:59.267Z,34.94
2022-08-09T12:50:59.557Z,35.63
2022-08-09T12:52:01.391Z,36.49
2022-08-09T12:53:18.144Z,34.03
2022-08-09T12:54:00.203Z,34.97
2022-08-09T12:56:12.120Z,33.17
2022-08-09T12:56:13.681Z,34.84